Time;durP1;ratioP1;P1;durP2;ratioP2;P2;SDS_P1;SDS_P2;PMS_P1;PMS_P2;Temp;Humidity;BMP_temperature;BMP_pressure;BME280_temperature;BME280_humidity;BME280_pressure;Samples;Min_cycle;Max_cycle;Signal;HPM_P1;HPM_P2
2023/07/15 00:00:21;;;;;;;6.78;3.17;;;28.70;79.50;;;;;;4988162;28;20410;-80
2023/07/15 00:02:47;;;;;;;5.43;2.63;;;28.70;79.70;;;;;;4994780;28;20073;-80
2023/07/15 00:05:17;;;;;;;8.73;3.00;;;28.70;79.50;;;;;;5002515;28;20502;-80
2023/07/15 00:07:43;;;;;;;5.75;3.25;;;28.70;79.70;;;;;;5001916;28;20100;-81
2023/07/15 00:10:10;;;;;;;7.07;2.75;;;28.60;80.00;;;;;;5018096;28;20049;-81
2023/07/15 00:12:36;;;;;;;4.30;3.00;;;28.60;79.90;;;;;;5009932;28;20037;-80
2023/07/15 00:15:02;;;;;;;7.65;3.15;;;28.60;80.20;;;;;;5005979;28;20034;-89
2023/07/15 00:17:28;;;;;;;6.47;3.25;;;28.60;80.30;;;;;;5010393;28;20393;-89
2023/07/15 00:19:53;;;;;;;6.32;2.80;;;28.50;80.50;;;;;;5036186;28;20408;-90
2023/07/15 00:22:19;;;;;;;7.40;3.35;;;28.50;80.30;;;;;;5035206;28;20034;-89
2023/07/15 00:24:46;;;;;;;5.90;3.13;;;28.50;80.60;;;;;;5022803;28;20470;-80
2023/07/15 00:27:11;;;;;;;6.28;3.08;;;28.50;80.50;;;;;;5022765;28;20330;-81
2023/07/15 00:29:37;;;;;;;8.05;3.50;;;28.40;80.50;;;;;;4980604;28;20037;-80
2023/07/15 00:32:04;;;;;;;8.20;2.92;;;28.40;80.50;;;;;;5015196;28;20026;-80
2023/07/15 00:34:30;;;;;;;5.70;3.20;;;28.40;80.60;;;;;;5023367;28;20527;-89
2023/07/15 00:36:55;;;;;;;6.55;3.45;;;28.50;80.60;;;;;;5052521;28;20032;-88
2023/07/15 00:39:21;;;;;;;8.18;3.88;;;28.40;80.60;;;;;;5053774;28;20477;-87
2023/07/15 00:41:47;;;;;;;5.78;3.40;;;28.40;80.70;;;;;;5054041;28;20025;-86
2023/07/15 00:44:15;;;;;;;4.95;3.60;;;28.40;80.60;;;;;;5020936;28;20481;-86
2023/07/15 00:47:02;;;;;;;5.72;3.15;;;28.40;80.70;;;;;;5031419;28;20035;-87
2023/07/15 00:49:33;;;;;;;12.02;4.05;;;28.30;80.70;;;;;;5053593;28;20427;-87
2023/07/15 00:52:13;;;;;;;16.02;3.67;;;28.30;81.00;;;;;;5053390;28;20048;-86
2023/07/15 00:54:41;;;;;;;4.50;3.25;;;28.30;81.10;;;;;;5023002;28;20053;-80
2023/07/15 00:57:09;;;;;;;6.85;3.42;;;28.20;81.20;;;;;;5031706;28;20112;-80
2023/07/15 00:59:38;;;;;;;6.53;3.22;;;28.20;81.30;;;;;;5037433;28;20097;-81
2023/07/15 01:02:05;;;;;;;6.00;3.50;;;28.20;81.50;;;;;;5017033;28;20022;-80
2023/07/15 01:04:31;;;;;;;7.28;4.15;;;28.20;81.40;;;;;;5031714;28;20056;-81
2023/07/15 01:06:56;;;;;;;6.53;3.65;;;28.20;81.70;;;;;;5041308;28;20072;-80
2023/07/15 01:09:24;;;;;;;8.82;3.67;;;28.20;81.60;;;;;;5016843;28;20442;-80
2023/07/15 01:11:49;;;;;;;5.72;3.28;;;28.20;81.80;;;;;;5037639;28;20032;-81
2023/07/15 01:14:15;;;;;;;6.68;3.53;;;28.10;81.80;;;;;;5041175;28;20115;-81
2023/07/15 01:16:41;;;;;;;9.15;3.67;;;28.10;81.80;;;;;;5045682;28;20029;-88
2023/07/15 01:19:07;;;;;;;7.75;3.45;;;28.10;81.80;;;;;;5053548;28;20096;-87
2023/07/15 01:21:34;;;;;;;7.35;3.28;;;28.10;82.00;;;;;;5032562;28;20022;-88
2023/07/15 01:24:00;;;;;;;8.32;3.53;;;28.10;82.20;;;;;;5016709;28;20064;-88
2023/07/15 01:26:26;;;;;;;5.78;3.22;;;28.10;82.10;;;;;;5006045;28;20037;-88
2023/07/15 01:28:52;;;;;;;8.48;3.00;;;28.00;82.00;;;;;;5011354;28;20029;-88
2023/07/15 01:31:21;;;;;;;7.38;4.07;;;28.00;82.10;;;;;;5038251;28;20041;-88
2023/07/15 01:33:47;;;;;;;8.05;3.70;;;28.00;82.20;;;;;;5016188;28;20044;-88
2023/07/15 01:36:13;;;;;;;6.38;3.92;;;28.00;82.10;;;;;;5034012;28;20092;-82
2023/07/15 01:38:40;;;;;;;9.35;3.88;;;28.00;82.30;;;;;;5018856;28;20026;-81
2023/07/15 01:41:06;;;;;;;5.15;3.30;;;28.00;82.00;;;;;;5016521;28;20037;-81
2023/07/15 01:43:32;;;;;;;6.90;3.40;;;27.90;81.80;;;;;;5032867;28;20034;-91
2023/07/15 01:45:58;;;;;;;6.85;3.22;;;28.00;81.80;;;;;;5037396;28;20030;-91
2023/07/15 01:48:25;;;;;;;6.22;3.30;;;28.00;81.40;;;;;;5033467;28;20109;-91
2023/07/15 01:50:51;;;;;;;6.03;3.30;;;28.00;81.10;;;;;;4996178;28;20109;-81
2023/07/15 01:53:17;;;;;;;7.07;2.67;;;28.00;80.90;;;;;;5043991;28;20107;-81
2023/07/15 01:55:43;;;;;;;7.10;3.20;;;28.00;80.90;;;;;;5014988;28;20480;-80
2023/07/15 01:58:09;;;;;;;5.30;3.00;;;27.90;80.70;;;;;;5013869;28;20022;-81
2023/07/15 02:00:35;;;;;;;8.05;3.15;;;27.90;80.30;;;;;;5015827;28;20070;-81
2023/07/15 02:03:00;;;;;;;6.30;3.10;;;27.90;80.30;;;;;;5012356;28;20414;-81
2023/07/15 02:05:26;;;;;;;5.30;2.45;;;27.90;80.10;;;;;;5012495;28;20041;-81
2023/07/15 02:07:52;;;;;;;4.72;2.70;;;27.90;79.80;;;;;;5019321;28;20038;-82
2023/07/15 02:10:17;;;;;;;5.45;3.10;;;27.90;78.70;;;;;;5049210;28;20033;-80
2023/07/15 02:12:44;;;;;;;5.75;2.55;;;27.80;77.40;;;;;;5040652;28;20037;-81
2023/07/15 02:15:09;;;;;;;7.30;2.83;;;27.80;77.00;;;;;;5038308;28;20088;-80
2023/07/15 02:17:35;;;;;;;5.57;2.40;;;27.80;76.70;;;;;;5019523;28;20474;-80
2023/07/15 02:20:01;;;;;;;5.78;2.67;;;27.70;76.30;;;;;;5019885;28;20405;-80
2023/07/15 02:22:27;;;;;;;4.00;2.30;;;27.70;76.00;;;;;;5025276;28;20030;-81
2023/07/15 02:24:53;;;;;;;6.07;2.70;;;27.70;75.80;;;;;;5031869;28;20029;-80
2023/07/15 02:27:18;;;;;;;3.75;2.40;;;27.70;75.50;;;;;;5032149;28;20033;-81
2023/07/15 02:29:45;;;;;;;3.95;2.55;;;27.70;75.30;;;;;;5022620;28;20064;-90
2023/07/15 02:32:15;;;;;;;4.60;2.00;;;27.70;74.70;;;;;;5054665;28;20033;-89
2023/07/15 02:34:41;;;;;;;7.68;1.90;;;27.60;74.20;;;;;;5024416;28;20049;-88
2023/07/15 02:37:06;;;;;;;3.25;1.95;;;27.60;73.80;;;;;;5016614;28;20026;-89
2023/07/15 02:39:34;;;;;;;3.65;1.60;;;27.50;73.10;;;;;;5016553;28;20022;-87
2023/07/15 02:42:00;;;;;;;1.88;1.67;;;27.50;72.40;;;;;;5016537;28;20018;-86
2023/07/15 02:44:27;;;;;;;4.97;1.80;;;27.50;71.80;;;;;;5016151;28;20133;-87
2023/07/15 02:46:53;;;;;;;2.22;1.45;;;27.50;71.70;;;;;;4998624;28;20116;-87
2023/07/15 02:49:18;;;;;;;2.63;1.50;;;27.50;71.40;;;;;;5032279;28;20105;-87
2023/07/15 02:51:44;;;;;;;2.53;1.27;;;27.40;70.60;;;;;;5020476;28;20025;-88
2023/07/15 02:54:10;;;;;;;3.88;1.80;;;27.40;70.60;;;;;;5028105;28;20025;-87
2023/07/15 02:56:35;;;;;;;3.25;1.40;;;27.40;70.40;;;;;;5016231;28;20038;-87
2023/07/15 02:59:01;;;;;;;4.25;1.50;;;27.40;70.30;;;;;;5030750;28;20026;-88
2023/07/15 03:01:27;;;;;;;2.78;1.65;;;27.40;70.30;;;;;;5037748;28;20028;-88
2023/07/15 03:03:53;;;;;;;2.95;1.80;;;27.40;70.00;;;;;;5030968;28;20098;-81
2023/07/15 03:06:19;;;;;;;2.78;1.63;;;27.40;69.90;;;;;;5026389;28;20045;-81
2023/07/15 03:08:45;;;;;;;2.83;1.95;;;27.40;70.00;;;;;;5032002;28;20017;-81
2023/07/15 03:11:11;;;;;;;2.33;1.70;;;27.40;70.00;;;;;;5023947;28;20030;-80
2023/07/15 03:13:37;;;;;;;2.13;1.30;;;27.40;70.10;;;;;;5013915;28;20077;-80
2023/07/15 03:16:04;;;;;;;1.90;1.40;;;27.30;70.20;;;;;;5029112;28;20026;-80
2023/07/15 03:18:29;;;;;;;3.90;1.85;;;27.30;70.20;;;;;;5019864;28;20073;-81
2023/07/15 03:20:56;;;;;;;3.88;1.98;;;27.30;70.30;;;;;;5027833;28;20437;-80
2023/07/15 03:23:22;;;;;;;5.55;2.30;;;27.30;70.40;;;;;;5037483;28;20388;-80
2023/07/15 03:25:48;;;;;;;2.85;1.90;;;27.30;70.40;;;;;;5037106;28;20030;-88
2023/07/15 03:28:14;;;;;;;4.38;2.28;;;27.30;70.50;;;;;;5017577;28;20033;-86
2023/07/15 03:30:39;;;;;;;4.88;2.40;;;27.30;70.60;;;;;;5050266;28;20033;-86
2023/07/15 03:33:05;;;;;;;5.00;2.00;;;27.30;70.70;;;;;;5045649;28;20022;-86
2023/07/15 03:35:31;;;;;;;4.45;2.40;;;27.30;70.80;;;;;;5031782;28;20660;-86
2023/07/15 03:37:57;;;;;;;5.32;1.92;;;27.20;70.70;;;;;;5034557;28;20170;-88
2023/07/15 03:40:23;;;;;;;3.53;2.10;;;27.20;70.90;;;;;;5035179;28;20764;-88
2023/07/15 03:42:49;;;;;;;4.05;2.35;;;27.20;71.00;;;;;;5055743;28;20029;-88
2023/07/15 03:45:14;;;;;;;4.70;2.00;;;27.20;71.10;;;;;;5043848;28;20091;-88
2023/07/15 03:47:40;;;;;;;3.38;2.10;;;27.20;71.10;;;;;;5032725;28;20032;-88
2023/07/15 03:50:09;;;;;;;3.55;2.33;;;27.10;71.00;;;;;;5041776;28;20120;-89
2023/07/15 03:52:35;;;;;;;4.35;2.13;;;27.10;71.10;;;;;;5025118;28;20022;-89
2023/07/15 03:55:02;;;;;;;4.30;2.20;;;27.10;71.40;;;;;;5027820;28;20449;-88
2023/07/15 03:57:28;;;;;;;3.30;1.65;;;27.00;71.50;;;;;;5015731;28;20029;-88
2023/07/15 04:00:03;;;;;;;4.55;2.00;;;26.90;71.60;;;;;;5015196;28;20378;-80
2023/07/15 04:02:29;;;;;;;2.92;1.80;;;26.90;71.70;;;;;;5042167;28;20022;-79
2023/07/15 04:04:54;;;;;;;3.55;1.70;;;26.90;71.90;;;;;;5028364;28;20088;-80
2023/07/15 04:07:20;;;;;;;5.05;1.80;;;26.80;71.90;;;;;;5030068;28;20041;-79
2023/07/15 04:09:46;;;;;;;5.07;2.08;;;26.80;72.20;;;;;;5029226;28;20658;-80
2023/07/15 04:12:11;;;;;;;2.72;1.92;;;26.80;72.30;;;;;;5030787;28;20029;-80
2023/07/15 04:14:37;;;;;;;4.65;2.10;;;26.70;72.20;;;;;;5033517;28;20033;-80
2023/07/15 04:17:03;;;;;;;3.72;1.90;;;26.70;72.30;;;;;;5028912;28;20067;-80
2023/07/15 04:19:29;;;;;;;2.78;1.45;;;26.70;72.30;;;;;;5036919;28;20029;-80
2023/07/15 04:21:54;;;;;;;2.67;1.60;;;26.70;72.50;;;;;;5032080;28;20478;-80
2023/07/15 04:24:20;;;;;;;2.90;1.60;;;26.70;72.30;;;;;;5024290;28;20034;-86
2023/07/15 04:26:46;;;;;;;2.22;1.70;;;26.70;72.30;;;;;;5014116;28;20033;-85
2023/07/15 04:29:11;;;;;;;2.95;1.77;;;26.70;72.30;;;;;;5008051;28;20057;-86
2023/07/15 04:31:37;;;;;;;3.85;1.80;;;26.70;72.30;;;;;;5034016;28;20030;-85
2023/07/15 04:34:03;;;;;;;2.28;1.73;;;26.60;72.40;;;;;;5027554;28;20046;-86
2023/07/15 04:36:29;;;;;;;2.70;1.50;;;26.60;72.50;;;;;;5013714;28;20101;-85
2023/07/15 04:38:54;;;;;;;3.72;1.60;;;26.60;73.30;;;;;;5035768;28;20026;-87
2023/07/15 04:41:20;;;;;;;3.72;1.50;;;26.60;72.60;;;;;;5033557;28;20386;-86
2023/07/15 04:43:46;;;;;;;5.63;1.90;;;26.60;72.50;;;;;;5033436;28;20108;-86
2023/07/15 04:46:12;;;;;;;4.70;1.58;;;26.60;72.30;;;;;;5033634;28;20041;-86
2023/07/15 04:48:38;;;;;;;3.22;1.92;;;26.60;72.30;;;;;;5035014;28;20474;-91
2023/07/15 04:51:04;;;;;;;2.05;1.40;;;26.50;72.40;;;;;;5015760;28;20028;-93
2023/07/15 04:53:30;;;;;;;1.80;1.50;;;26.50;72.40;;;;;;5016395;28;20115;-80
2023/07/15 04:55:55;;;;;;;2.15;1.27;;;26.50;72.30;;;;;;5028594;28;20037;-80
2023/07/15 04:58:21;;;;;;;3.75;1.45;;;26.60;72.40;;;;;;5005344;28;20080;-85
2023/07/15 05:00:51;;;;;;;14.90;1.80;;;26.60;72.00;;;;;;5020620;28;20041;-81
2023/07/15 05:06:33;;;;;;;3.17;1.40;;;26.50;72.20;;;;;;4945609;28;20391;-80
2023/07/15 05:09:00;;;;;;;5.13;1.80;;;26.50;72.50;;;;;;5050355;28;20040;-92
2023/07/15 05:11:31;;;;;;;4.20;1.60;;;26.50;72.80;;;;;;5025971;28;20485;-92
2023/07/15 05:13:56;;;;;;;2.33;1.50;;;26.60;72.50;;;;;;5036335;28;20017;-91
2023/07/15 05:16:22;;;;;;;2.95;1.85;;;26.60;72.60;;;;;;5029215;28;20359;-89
2023/07/15 05:18:57;;;;;;;3.65;2.00;;;26.70;72.60;;;;;;5041298;28;20033;-89
2023/07/15 05:21:23;;;;;;;3.80;1.88;;;26.70;72.30;;;;;;5016675;28;20069;-90
2023/07/15 05:23:48;;;;;;;4.38;1.60;;;26.70;72.10;;;;;;5026598;28;20080;-80
2023/07/15 05:26:14;;;;;;;4.57;1.92;;;26.60;71.80;;;;;;5035091;28;20037;-81
2023/07/15 05:28:40;;;;;;;3.60;1.60;;;26.70;72.20;;;;;;5028957;28;20184;-80
2023/07/15 05:31:05;;;;;;;3.58;1.60;;;26.70;72.10;;;;;;5014452;28;20065;-80
2023/07/15 05:33:32;;;;;;;6.75;1.88;;;26.70;72.10;;;;;;5015509;28;20036;-82
2023/07/15 05:35:58;;;;;;;3.13;1.55;;;26.70;72.10;;;;;;5032522;28;20044;-82
2023/07/15 05:38:25;;;;;;;3.47;1.60;;;26.70;72.00;;;;;;5032654;28;20017;-80
2023/07/15 05:40:52;;;;;;;3.85;1.75;;;26.80;72.30;;;;;;5011334;28;20030;-81
2023/07/15 05:43:19;;;;;;;2.97;1.80;;;26.80;72.90;;;;;;5034055;28;20025;-90
2023/07/15 05:45:47;;;;;;;2.33;1.50;;;26.90;72.70;;;;;;5043442;28;20068;-90
2023/07/15 05:48:13;;;;;;;2.63;1.45;;;26.90;72.60;;;;;;5012136;28;20026;-90
2023/07/15 05:50:39;;;;;;;4.03;1.45;;;26.90;71.90;;;;;;5032846;28;20033;-81
2023/07/15 05:53:05;;;;;;;2.05;1.42;;;26.90;71.90;;;;;;5018726;28;20033;-81
2023/07/15 05:55:34;;;;;;;2.60;1.45;;;27.00;72.30;;;;;;5032196;28;20033;-89
2023/07/15 05:58:09;;;;;;;1.77;1.20;;;27.00;72.10;;;;;;5024595;28;20032;-88
2023/07/15 06:00:39;;;;;;;3.47;1.40;;;27.00;71.90;;;;;;5017087;28;20050;-90
2023/07/15 06:03:08;;;;;;;3.28;1.60;;;27.00;72.60;;;;;;5001674;28;20026;-89
2023/07/15 06:05:34;;;;;;;2.90;1.23;;;27.00;72.50;;;;;;5019111;28;20025;-89
2023/07/15 06:08:00;;;;;;;3.10;1.15;;;27.00;72.50;;;;;;5018195;28;20524;-88
2023/07/15 06:10:26;;;;;;;2.08;1.15;;;27.00;72.10;;;;;;5037420;28;20112;-88
2023/07/15 06:12:52;;;;;;;3.10;1.70;;;27.10;71.90;;;;;;5038218;28;20036;-90
2023/07/15 06:15:18;;;;;;;3.08;1.42;;;27.20;72.30;;;;;;5021832;28;20095;-87
2023/07/15 06:18:04;;;;;;;2.55;1.42;;;27.20;72.40;;;;;;5020340;28;20022;-87
2023/07/15 06:20:32;;;;;;;2.17;1.45;;;27.20;72.30;;;;;;5018482;28;20525;-86
2023/07/15 06:22:58;;;;;;;2.72;1.42;;;27.30;72.30;;;;;;5004382;28;20026;-87
2023/07/15 06:25:26;;;;;;;4.53;1.42;;;27.30;72.40;;;;;;4999933;28;20030;-88
2023/07/15 06:27:52;;;;;;;2.75;1.50;;;27.30;72.30;;;;;;4999779;28;20136;-85
2023/07/15 06:30:20;;;;;;;1.92;1.23;;;27.40;72.30;;;;;;5021710;28;20087;-86
2023/07/15 06:32:52;;;;;;;2.40;1.50;;;27.40;72.10;;;;;;5024725;28;20037;-87
2023/07/15 06:35:18;;;;;;;2.03;1.25;;;27.40;72.20;;;;;;5017888;28;20170;-87
2023/07/15 06:37:48;;;;;;;1.85;1.48;;;27.50;72.40;;;;;;5038514;28;20058;-88
2023/07/15 06:40:18;;;;;;;7.40;2.75;;;27.50;72.40;;;;;;5045484;28;20032;-88
2023/07/15 06:42:44;;;;;;;3.05;1.60;;;27.50;72.50;;;;;;5046552;28;20021;-80
2023/07/15 06:45:11;;;;;;;3.10;1.48;;;27.50;72.50;;;;;;5054941;28;20100;-80
2023/07/15 06:47:37;;;;;;;4.22;1.55;;;27.50;72.90;;;;;;5054921;28;20111;-81
2023/07/15 06:50:03;;;;;;;2.88;1.75;;;27.60;73.20;;;;;;4996579;28;20029;-80
2023/07/15 06:52:29;;;;;;;3.90;1.48;;;27.60;73.50;;;;;;5013032;28;20021;-80
2023/07/15 06:54:54;;;;;;;2.78;1.73;;;27.60;73.10;;;;;;5014850;28;20052;-80
2023/07/15 06:57:20;;;;;;;5.35;1.50;;;27.70;73.10;;;;;;5015362;28;20413;-80
2023/07/15 06:59:47;;;;;;;6.05;1.35;;;27.70;73.00;;;;;;5033561;28;20030;-80
2023/07/15 07:02:13;;;;;;;2.25;1.65;;;27.80;72.90;;;;;;5016875;28;20017;-80
2023/07/15 07:04:38;;;;;;;2.45;1.52;;;27.80;73.00;;;;;;5035599;28;20484;-80
2023/07/15 07:07:04;;;;;;;4.10;1.60;;;27.80;72.90;;;;;;5035249;28;20025;-81
2023/07/15 07:09:30;;;;;;;1.75;1.35;;;27.90;73.20;;;;;;5035134;28;20037;-81
2023/07/15 07:11:56;;;;;;;2.88;1.38;;;27.90;72.90;;;;;;5017182;28;20017;-80
2023/07/15 07:14:21;;;;;;;1.52;1.40;;;27.90;73.00;;;;;;5034834;28;20477;-80
2023/07/15 07:16:47;;;;;;;3.22;1.58;;;28.00;73.10;;;;;;5034975;28;20044;-81
2023/07/15 07:19:13;;;;;;;2.20;1.73;;;28.00;72.90;;;;;;5002366;28;20058;-80
2023/07/15 07:21:39;;;;;;;5.30;1.73;;;28.10;72.80;;;;;;5033306;28;20478;-81
2023/07/15 07:24:05;;;;;;;3.70;1.50;;;28.20;72.70;;;;;;5016749;28;20412;-81
2023/07/15 07:26:31;;;;;;;3.00;1.60;;;28.20;72.50;;;;;;5034712;28;20053;-80
2023/07/15 07:28:56;;;;;;;2.22;1.58;;;28.20;72.40;;;;;;5033549;28;20053;-81
2023/07/15 07:31:24;;;;;;;2.78;1.63;;;28.20;72.60;;;;;;5028111;28;20064;-82
2023/07/15 07:33:55;;;;;;;4.38;1.75;;;28.30;72.60;;;;;;5006927;28;20170;-81
2023/07/15 07:36:23;;;;;;;5.25;1.40;;;28.30;72.40;;;;;;5001142;28;20520;-81
2023/07/15 07:38:51;;;;;;;3.20;1.45;;;28.40;72.50;;;;;;5011366;28;20390;-82
2023/07/15 07:41:21;;;;;;;2.63;1.50;;;28.50;72.50;;;;;;5014056;28;20390;-82
2023/07/15 07:44:11;;;;;;;;;;;28.50;72.20;;;;;;5014729;28;20390;-84
2023/07/15 07:46:39;;;;;;;2.95;1.67;;;28.60;72.00;;;;;;5282093;23;19932;-91
2023/07/15 07:49:06;;;;;;;2.15;1.60;;;28.60;72.10;;;;;;5038061;28;20036;-82
2023/07/15 07:51:32;;;;;;;5.65;1.95;;;28.70;72.10;;;;;;5063942;28;20028;-82
2023/07/15 07:53:59;;;;;;;3.70;1.33;;;28.70;72.30;;;;;;5059060;28;20021;-82
2023/07/15 07:56:27;;;;;;;2.80;1.52;;;28.80;72.20;;;;;;5054833;28;20060;-82
2023/07/15 07:58:57;;;;;;;3.50;1.45;;;28.80;72.30;;;;;;5037944;28;20046;-81
2023/07/15 08:01:31;;;;;;;2.95;1.42;;;28.90;71.90;;;;;;5033987;28;20033;-82
2023/07/15 08:03:58;;;;;;;2.42;1.27;;;28.90;71.90;;;;;;5034071;28;20032;-82
2023/07/15 08:06:25;;;;;;;7.43;2.33;;;28.90;71.80;;;;;;5035704;28;20033;-82
2023/07/15 08:09:12;;;;;;;2.83;1.60;;;29.00;71.90;;;;;;5034316;28;20029;-83
2023/07/15 08:11:44;;;;;;;2.67;1.52;;;29.10;72.10;;;;;;5035175;28;20029;-82
2023/07/15 08:14:17;;;;;;;4.75;1.50;;;29.10;71.60;;;;;;5032430;28;20033;-83
2023/07/15 08:16:50;;;;;;;3.33;1.67;;;29.20;71.60;;;;;;5032714;28;20499;-82
2023/07/15 08:22:54;;;;;;;3.70;1.77;;;29.30;71.30;;;;;;5055865;28;20407;-89
2023/07/15 08:25:20;;;;;;;1.88;1.33;;;29.30;71.30;;;;;;5055888;28;20035;-89
2023/07/15 08:27:47;;;;;;;2.47;1.55;;;29.40;71.70;;;;;;5056963;28;20063;-89
2023/07/15 08:30:17;;;;;;;7.78;2.28;;;29.40;71.50;;;;;;5063655;28;20024;-90
2023/07/15 08:32:46;;;;;;;2.55;1.40;;;29.50;71.00;;;;;;5041021;28;20029;-90
2023/07/15 08:35:13;;;;;;;1.80;1.30;;;29.60;71.50;;;;;;5035240;28;20116;-86
2023/07/15 08:37:41;;;;;;;3.42;1.58;;;29.60;71.40;;;;;;5037409;28;20108;-92
2023/07/15 08:40:13;;;;;;;2.83;1.50;;;29.70;70.80;;;;;;5040051;28;20059;-86
2023/07/15 08:43:34;;;;;;;2.42;1.40;;;29.80;70.80;;;;;;5036253;28;20036;-89
2023/07/15 08:46:15;;;;;;;4.45;1.65;;;29.80;71.20;;;;;;5033935;28;20028;-87
2023/07/15 08:48:43;;;;;;;2.70;1.38;;;30.00;71.30;;;;;;5033898;28;20050;-87
2023/07/15 08:52:05;;;;;;;2.00;1.50;;;30.10;71.70;;;;;;5019449;28;20039;-87
2023/07/15 08:54:34;;;;;;;3.75;1.70;;;30.20;71.50;;;;;;5007940;28;20038;-87
2023/07/15 08:57:19;;;;;;;4.05;1.42;;;30.20;71.40;;;;;;5016457;28;20070;-87
2023/07/15 09:00:36;;;;;;;1.60;1.48;;;30.30;71.40;;;;;;5011185;28;20509;-87
2023/07/15 09:03:05;;;;;;;3.03;2.05;;;30.40;71.00;;;;;;5017210;28;20044;-87
2023/07/15 09:06:08;;;;;;;2.92;1.67;;;30.50;70.80;;;;;;5015798;28;20112;-87
2023/07/15 09:08:34;;;;;;;2.05;1.48;;;30.60;70.20;;;;;;5016307;28;20049;-87
2023/07/15 09:11:08;;;;;;;1.95;1.20;;;30.60;69.90;;;;;;5013520;28;20029;-87
2023/07/15 09:17:21;;;;;;;2.50;1.15;;;30.70;69.10;;;;;;5031198;28;20036;-85
2023/07/15 09:19:50;;;;;;;2.33;1.30;;;30.80;68.20;;;;;;5034117;28;20021;-82
2023/07/15 09:22:57;;;;;;;2.72;1.50;;;30.90;68.20;;;;;;5017820;28;20060;-82
2023/07/15 09:25:25;;;;;;;4.28;1.45;;;30.90;67.70;;;;;;5016915;28;20099;-82
2023/07/15 09:27:52;;;;;;;1.90;1.20;;;31.00;67.70;;;;;;5017146;28;20087;-83
2023/07/15 09:30:22;;;;;;;1.50;1.20;;;31.10;67.70;;;;;;5016553;28;20093;-82
2023/07/15 09:32:51;;;;;;;4.75;1.20;;;31.20;66.60;;;;;;5017859;28;20026;-81
2023/07/15 09:35:22;;;;;;;2.78;1.20;;;31.20;65.70;;;;;;5020749;28;20045;-83
2023/07/15 09:37:51;;;;;;;3.40;1.60;;;31.30;64.80;;;;;;5014805;28;20141;-83
2023/07/15 09:40:20;;;;;;;2.30;1.10;;;31.40;64.10;;;;;;5016894;28;20374;-82
2023/07/15 09:42:51;;;;;;;4.28;1.70;;;31.40;63.40;;;;;;5029458;28;20014;-83
2023/07/15 09:45:38;;;;;;;3.55;1.67;;;31.50;63.30;;;;;;5034420;28;20045;-83
2023/07/15 09:48:08;;;;;;;3.50;1.50;;;31.60;62.60;;;;;;5016094;28;20083;-83
2023/07/15 09:50:41;;;;;;;3.05;1.40;;;31.60;63.20;;;;;;5029914;28;20037;-83
2023/07/15 09:53:25;;;;;;;4.22;1.67;;;31.70;63.50;;;;;;5005074;28;20045;-83
2023/07/15 09:55:52;;;;;;;2.83;1.55;;;31.80;64.40;;;;;;5009861;28;20080;-82
2023/07/15 09:58:25;;;;;;;3.55;1.65;;;31.90;64.70;;;;;;5015153;28;20032;-83
2023/07/15 10:04:19;;;;;;;2.67;1.73;;;32.10;65.20;;;;;;5017791;28;20064;-87
2023/07/15 10:06:45;;;;;;;2.67;1.77;;;32.20;65.50;;;;;;5014980;28;20033;-86
2023/07/15 10:09:14;;;;;;;2.67;1.70;;;32.30;65.70;;;;;;5004845;28;20041;-87
2023/07/15 10:11:40;;;;;;;4.72;1.90;;;32.30;65.50;;;;;;5025497;28;20059;-86
2023/07/15 10:14:07;;;;;;;3.78;1.85;;;32.40;66.00;;;;;;5035142;28;20022;-88
2023/07/15 10:16:38;;;;;;;3.83;2.15;;;32.50;66.10;;;;;;5017278;28;20424;-87
2023/07/15 10:19:04;;;;;;;13.73;2.78;;;32.60;65.80;;;;;;5018376;28;20385;-87
2023/07/15 10:21:31;;;;;;;6.10;3.05;;;32.70;65.50;;;;;;5017286;28;20124;-87
2023/07/15 10:24:12;;;;;;;4.78;1.88;;;32.80;65.50;;;;;;5017618;28;20108;-87
2023/07/15 10:26:49;;;;;;;5.35;2.47;;;32.90;65.50;;;;;;5017809;28;20030;-87
2023/07/15 10:29:15;;;;;;;2.90;2.10;;;33.00;65.50;;;;;;5021565;28;20442;-86
2023/07/15 10:31:40;;;;;;;6.25;2.13;;;33.10;65.10;;;;;;5034353;28;20112;-86
2023/07/15 10:34:08;;;;;;;5.40;1.92;;;33.20;64.60;;;;;;5034369;28;20104;-84
2023/07/15 10:36:37;;;;;;;5.43;1.90;;;33.30;64.20;;;;;;5031438;28;20076;-86
2023/07/15 10:39:20;;;;;;;3.78;1.90;;;33.40;64.00;;;;;;5030859;28;20033;-86
2023/07/15 10:41:52;;;;;;;5.15;1.67;;;33.50;62.70;;;;;;5016471;28;20132;-86
2023/07/15 10:44:19;;;;;;;5.38;2.17;;;33.60;62.80;;;;;;5025925;28;20104;-85
2023/07/15 10:46:52;;;;;;;4.55;2.13;;;33.70;62.90;;;;;;5023866;28;20132;-87
2023/07/15 10:49:18;;;;;;;4.18;1.90;;;33.80;62.50;;;;;;5025597;28;20114;-85
2023/07/15 10:51:46;;;;;;;4.75;1.77;;;34.00;62.20;;;;;;5021523;28;20396;-86
2023/07/15 10:54:11;;;;;;;4.80;1.83;;;34.10;61.80;;;;;;5024530;28;20091;-86
2023/07/15 10:56:38;;;;;;;5.63;1.90;;;34.20;61.80;;;;;;5025160;28;20037;-86
2023/07/15 10:59:03;;;;;;;5.07;1.80;;;34.30;61.40;;;;;;5027453;28;22025;-86
2023/07/15 11:01:30;;;;;;;3.88;2.10;;;34.40;61.30;;;;;;5026818;28;20106;-86
2023/07/15 11:04:03;;;;;;;2.75;1.80;;;34.50;60.90;;;;;;5010410;28;20043;-86
2023/07/15 11:06:29;;;;;;;4.97;2.08;;;34.60;60.30;;;;;;5032075;28;20490;-86
2023/07/15 11:08:55;;;;;;;6.10;1.83;;;34.70;60.80;;;;;;5026779;28;20021;-86
2023/07/15 11:11:23;;;;;;;2.83;1.83;;;34.80;60.50;;;;;;5041477;28;20060;-87
2023/07/15 11:13:49;;;;;;;5.10;2.10;;;34.90;60.30;;;;;;5019373;28;20516;-87
2023/07/15 11:16:14;;;;;;;3.80;1.63;;;35.00;60.00;;;;;;5034543;28;20026;-87
2023/07/15 11:18:40;;;;;;;2.47;1.63;;;35.00;59.60;;;;;;5008638;28;20113;-89
2023/07/15 11:21:06;;;;;;;7.07;1.90;;;35.20;59.70;;;;;;5029176;28;20486;-89
2023/07/15 11:23:32;;;;;;;4.07;2.30;;;35.30;59.60;;;;;;5035222;28;20057;-83
2023/07/15 11:26:09;;;;;;;3.65;1.95;;;35.50;59.10;;;;;;5026480;28;20485;-82
2023/07/15 11:28:49;;;;;;;4.22;2.47;;;35.70;59.10;;;;;;5034487;28;20033;-83
2023/07/15 11:31:14;;;;;;;9.57;2.63;;;35.90;58.50;;;;;;5005984;28;20413;-83
2023/07/15 11:33:40;;;;;;;2.72;2.17;;;36.10;58.00;;;;;;5016841;28;20079;-82
2023/07/15 11:36:06;;;;;;;5.43;2.40;;;36.20;58.20;;;;;;5034490;28;20109;-82
2023/07/15 11:38:34;;;;;;;4.72;2.30;;;36.40;58.30;;;;;;5034121;28;20044;-82
2023/07/15 11:41:00;;;;;;;5.28;2.17;;;36.70;57.70;;;;;;5015917;28;20401;-83
2023/07/15 11:43:28;;;;;;;2.60;1.83;;;37.00;57.80;;;;;;5025031;28;20025;-82
2023/07/15 11:45:55;;;;;;;5.20;2.25;;;37.40;57.40;;;;;;5041032;28;20111;-84
2023/07/15 11:48:26;;;;;;;3.90;2.50;;;37.70;56.00;;;;;;5019596;28;20405;-82
2023/07/15 11:50:56;;;;;;;5.40;2.58;;;37.80;55.90;;;;;;5023965;28;20029;-82
2023/07/15 11:53:25;;;;;;;4.25;2.30;;;38.10;56.50;;;;;;5025558;28;20055;-83
2023/07/15 11:55:51;;;;;;;4.80;2.22;;;38.40;55.50;;;;;;5016146;28;20037;-83
2023/07/15 11:58:41;;;;;;;5.47;2.17;;;38.50;55.50;;;;;;5033185;28;20032;-83
2023/07/15 12:01:15;;;;;;;4.32;2.42;;;38.80;55.30;;;;;;5022945;28;20469;-84
2023/07/15 12:03:41;;;;;;;7.40;2.20;;;39.00;54.50;;;;;;5034425;28;20133;-83
2023/07/15 12:06:23;;;;;;;4.43;2.00;;;39.10;53.80;;;;;;5011923;28;20171;-83
2023/07/15 12:08:59;;;;;;;7.50;2.40;;;39.20;52.50;;;;;;5030464;28;20029;-83
2023/07/15 12:11:24;;;;;;;5.90;2.00;;;39.30;52.90;;;;;;5024357;28;20486;-89
2023/07/15 12:13:50;;;;;;;4.32;2.13;;;39.40;53.20;;;;;;5032818;28;20156;-89
2023/07/15 12:16:23;;;;;;;3.65;2.30;;;39.60;52.60;;;;;;5005294;28;20050;-89
2023/07/15 12:18:49;;;;;;;12.50;2.53;;;39.70;52.40;;;;;;5000742;28;20350;-89
2023/07/15 12:21:15;;;;;;;8.60;2.78;;;39.70;52.10;;;;;;5008212;28;20036;-91
2023/07/15 12:23:43;;;;;;;6.32;2.25;;;39.80;51.30;;;;;;5012615;28;20049;-91
2023/07/15 12:26:08;;;;;;;7.50;2.30;;;39.80;51.20;;;;;;5008523;28;20050;-92
2023/07/15 12:28:34;;;;;;;6.10;2.33;;;39.80;51.00;;;;;;5018956;28;20610;-94
2023/07/15 12:31:03;;;;;;;5.05;2.03;;;39.90;51.60;;;;;;5030409;28;20104;-83
2023/07/15 12:33:29;;;;;;;7.40;2.05;;;40.00;51.10;;;;;;5028931;28;20087;-83
2023/07/15 12:35:55;;;;;;;5.32;2.40;;;40.00;51.40;;;;;;5033577;28;20064;-90
2023/07/15 12:38:21;;;;;;;6.40;2.22;;;40.10;51.70;;;;;;5010723;28;20028;-89
2023/07/15 12:40:47;;;;;;;4.78;2.33;;;40.10;51.50;;;;;;5031375;28;20512;-91
2023/07/15 12:43:13;;;;;;;5.82;2.13;;;40.10;51.20;;;;;;5033344;28;20366;-92
2023/07/15 12:45:39;;;;;;;4.07;2.40;;;40.20;51.60;;;;;;5028735;28;20014;-91
2023/07/15 12:48:05;;;;;;;5.47;2.70;;;40.30;51.20;;;;;;5012415;28;20069;-93
2023/07/15 12:50:31;;;;;;;4.57;2.30;;;40.40;51.30;;;;;;5033390;28;20025;-84
2023/07/15 12:52:56;;;;;;;4.55;2.10;;;40.50;51.10;;;;;;4997989;28;20371;-82
2023/07/15 12:55:22;;;;;;;7.22;2.40;;;40.60;51.00;;;;;;5003837;28;20591;-83
2023/07/15 12:57:49;;;;;;;6.95;2.45;;;40.60;50.60;;;;;;5023155;28;20053;-91
2023/07/15 13:00:15;;;;;;;8.85;2.47;;;40.60;50.80;;;;;;5014519;28;20025;-90
2023/07/15 13:02:41;;;;;;;6.10;2.47;;;40.60;50.40;;;;;;5029811;28;20049;-92
2023/07/15 13:05:08;;;;;;;5.03;2.47;;;40.70;50.30;;;;;;5032908;28;20084;-92
2023/07/15 13:07:34;;;;;;;5.07;2.22;;;40.60;49.10;;;;;;5013223;28;20040;-83